createdAt,value
2018-03-03T00:00:13.992Z,16.12
2018-03-03T00:01:13.952Z,16.09
2018-03-03T00:02:13.976Z,16.12
2018-03-03T00:03:13.980Z,16.11
2018-03-03T00:04:13.975Z,16.09
2018-03-03T00:05:13.959Z,16.11
2018-03-03T00:06:13.988Z,16.08
2018-03-03T00:07:13.957Z,16.11
2018-03-03T00:08:13.969Z,16.08
2018-03-03T00:09:13.956Z,16.08
2018-03-03T00:10:13.954Z,16.08
2018-03-03T00:11:13.981Z,16.07
2018-03-03T00:12:13.973Z,16.05
2018-03-03T00:13:13.965Z,16.05
2018-03-03T00:14:13.971Z,16.07
2018-03-03T00:15:14.008Z,16.07
2018-03-03T00:16:13.943Z,16.05
2018-03-03T00:17:13.978Z,16.04
2018-03-03T00:18:13.977Z,16.05
2018-03-03T00:19:13.943Z,16.04
2018-03-03T00:20:14.027Z,16.04
2018-03-03T00:21:13.971Z,16.04
2018-03-03T00:22:13.982Z,16.01
2018-03-03T00:23:13.973Z,16.03
2018-03-03T00:24:13.972Z,16.01
2018-03-03T00:25:13.970Z,16.01
2018-03-03T00:26:13.974Z,16.04
2018-03-03T00:27:13.986Z,16.04
2018-03-03T00:28:13.947Z,16.04
2018-03-03T00:29:13.919Z,16.03
2018-03-03T00:30:13.959Z,16.01
2018-03-03T00:31:13.967Z,16.01
2018-03-03T00:32:13.980Z,16
2018-03-03T00:33:13.942Z,16
2018-03-03T00:34:13.935Z,15.98
2018-03-03T00:35:13.959Z,15.96
2018-03-03T00:36:13.960Z,15.97
2018-03-03T00:37:13.984Z,16
2018-03-03T00:38:13.963Z,15.98
2018-03-03T00:39:13.985Z,15.98
2018-03-03T00:40:13.965Z,16
2018-03-03T00:41:13.957Z,15.96
2018-03-03T00:42:13.946Z,15.96
2018-03-03T00:43:13.942Z,15.96
2018-03-03T00:44:13.961Z,15.96
2018-03-03T00:45:14.035Z,15.94
2018-03-03T00:46:14.071Z,15.93
2018-03-03T00:47:13.953Z,15.96
2018-03-03T00:48:13.966Z,15.91
2018-03-03T00:49:13.962Z,15.94
2018-03-03T00:50:13.947Z,15.94
2018-03-03T00:51:13.951Z,15.9
2018-03-03T00:52:13.945Z,15.91
2018-03-03T00:53:13.956Z,15.9
2018-03-03T00:54:13.970Z,15.9
2018-03-03T00:55:13.947Z,15.9
2018-03-03T00:56:13.966Z,15.9
2018-03-03T00:57:13.978Z,15.91
2018-03-03T00:58:13.962Z,15.88
2018-03-03T00:59:13.964Z,15.9
2018-03-03T01:00:13.977Z,15.86
2018-03-03T01:01:13.963Z,15.86
2018-03-03T01:02:13.949Z,15.86
2018-03-03T01:03:13.947Z,15.84
2018-03-03T01:04:13.954Z,15.86
2018-03-03T01:05:13.965Z,15.84
2018-03-03T01:06:13.932Z,15.84
2018-03-03T01:07:13.949Z,15.84
2018-03-03T01:08:13.967Z,15.82
2018-03-03T01:09:13.939Z,15.86
2018-03-03T01:10:13.944Z,15.82
2018-03-03T01:11:13.962Z,15.81
2018-03-03T01:12:13.954Z,15.82
2018-03-03T01:13:13.914Z,15.81
2018-03-03T01:14:13.938Z,15.8
2018-03-03T01:15:13.971Z,15.8
2018-03-03T01:16:13.968Z,15.78
2018-03-03T01:17:13.964Z,15.78
2018-03-03T01:18:13.954Z,15.8
2018-03-03T01:19:13.938Z,15.8
2018-03-03T01:20:13.931Z,15.81
2018-03-03T01:21:13.964Z,15.77
2018-03-03T01:22:13.964Z,15.78
2018-03-03T01:23:13.961Z,15.81
2018-03-03T01:24:13.962Z,15.77
2018-03-03T01:25:13.949Z,15.8
2018-03-03T01:26:13.952Z,15.76
2018-03-03T01:27:14.377Z,15.76
2018-03-03T01:28:13.948Z,15.76
2018-03-03T01:29:13.959Z,15.78
2018-03-03T01:30:13.954Z,15.77
2018-03-03T01:31:13.944Z,15.74
2018-03-03T01:32:13.942Z,15.76
2018-03-03T01:33:13.942Z,15.76
2018-03-03T01:34:13.961Z,15.73
2018-03-03T01:35:13.941Z,15.74
2018-03-03T01:36:13.936Z,15.76
2018-03-03T01:37:13.978Z,15.73
2018-03-03T01:38:13.941Z,15.71
2018-03-03T01:39:14.055Z,15.74
2018-03-03T01:40:13.936Z,15.73
2018-03-03T01:41:13.924Z,15.73
2018-03-03T01:42:13.933Z,15.71
2018-03-03T01:43:13.945Z,15.7
2018-03-03T01:44:13.941Z,15.69
2018-03-03T01:45:13.947Z,15.71
2018-03-03T01:46:13.917Z,15.7
2018-03-03T01:47:13.947Z,15.67
2018-03-03T01:48:14.004Z,15.69
2018-03-03T01:49:13.928Z,15.7
2018-03-03T01:50:13.913Z,15.69
2018-03-03T01:51:13.934Z,15.7
2018-03-03T01:52:13.931Z,15.67
2018-03-03T01:53:13.941Z,15.66
2018-03-03T01:54:13.936Z,15.67
2018-03-03T01:55:13.929Z,15.7
2018-03-03T01:56:13.907Z,15.67
2018-03-03T01:57:13.921Z,15.63
2018-03-03T01:58:13.964Z,15.66
2018-03-03T01:59:13.958Z,15.66
2018-03-03T02:00:13.915Z,15.66
2018-03-03T02:01:13.930Z,15.64
2018-03-03T02:02:13.903Z,15.63
2018-03-03T02:03:13.932Z,15.64
2018-03-03T02:04:13.920Z,15.63
2018-03-03T02:05:13.957Z,15.63
2018-03-03T02:06:13.950Z,15.6
2018-03-03T02:07:13.936Z,15.63
2018-03-03T02:08:13.928Z,15.59
2018-03-03T02:09:13.917Z,15.6
2018-03-03T02:10:13.915Z,15.63
2018-03-03T02:11:13.915Z,15.6
2018-03-03T02:12:13.948Z,15.63
2018-03-03T02:13:13.923Z,15.6
2018-03-03T02:14:13.951Z,15.6
2018-03-03T02:15:13.931Z,15.6
2018-03-03T02:16:13.933Z,15.59
2018-03-03T02:17:13.952Z,15.57
2018-03-03T02:18:13.890Z,15.6
2018-03-03T02:19:13.932Z,15.57
2018-03-03T02:20:13.923Z,15.56
2018-03-03T02:21:13.930Z,15.59
2018-03-03T02:22:13.941Z,15.57
2018-03-03T02:23:13.908Z,15.56
2018-03-03T02:24:13.923Z,15.57
2018-03-03T02:25:13.917Z,15.57
2018-03-03T02:26:13.920Z,15.56
2018-03-03T02:27:13.992Z,15.56
2018-03-03T02:28:13.937Z,15.56
2018-03-03T02:29:13.916Z,15.56
2018-03-03T02:30:13.922Z,15.59
2018-03-03T02:31:13.960Z,15.54
2018-03-03T02:32:13.942Z,15.56
2018-03-03T02:33:13.968Z,15.54
2018-03-03T02:34:13.929Z,15.53
2018-03-03T02:35:13.950Z,15.52
2018-03-03T02:36:13.931Z,15.53
2018-03-03T02:37:13.957Z,15.5
2018-03-03T02:38:13.951Z,15.49
2018-03-03T02:39:13.943Z,15.52
2018-03-03T02:40:13.954Z,15.5
2018-03-03T02:41:13.946Z,15.5
2018-03-03T02:42:13.977Z,15.52
2018-03-03T02:43:13.922Z,15.53
2018-03-03T02:44:13.942Z,15.52
2018-03-03T02:45:13.921Z,15.47
2018-03-03T02:46:14.041Z,15.5
2018-03-03T02:47:14.332Z,15.5
2018-03-03T02:48:13.935Z,15.49
2018-03-03T02:49:13.953Z,15.49
2018-03-03T02:50:13.945Z,15.49
2018-03-03T02:51:13.908Z,15.47
2018-03-03T02:52:13.938Z,15.49
2018-03-03T02:53:14.002Z,15.49
2018-03-03T02:54:13.958Z,15.47
2018-03-03T02:55:13.953Z,15.46
2018-03-03T02:56:13.921Z,15.46
2018-03-03T02:57:13.919Z,15.47
2018-03-03T02:58:13.985Z,15.47
2018-03-03T02:59:13.944Z,15.43
2018-03-03T03:00:13.999Z,15.42
2018-03-03T03:01:13.920Z,15.46
2018-03-03T03:02:13.935Z,15.42
2018-03-03T03:03:13.957Z,15.46
2018-03-03T03:04:14.007Z,15.47
2018-03-03T03:05:14.036Z,15.42
2018-03-03T03:06:13.929Z,15.43
2018-03-03T03:07:14.044Z,15.45
2018-03-03T03:08:13.908Z,15.45
2018-03-03T03:09:13.771Z,15.41
2018-03-03T03:10:13.941Z,15.42
2018-03-03T03:11:13.939Z,15.43
2018-03-03T03:12:13.926Z,15.41
2018-03-03T03:13:13.905Z,15.43
2018-03-03T03:14:13.942Z,15.42
2018-03-03T03:15:13.951Z,15.41
2018-03-03T03:16:13.919Z,15.41
2018-03-03T03:17:13.887Z,15.41
2018-03-03T03:18:13.872Z,15.39
2018-03-03T03:19:13.907Z,15.39
2018-03-03T03:20:13.914Z,15.39
2018-03-03T03:21:13.923Z,15.41
2018-03-03T03:22:13.897Z,15.39
2018-03-03T03:23:13.901Z,15.39
2018-03-03T03:24:13.913Z,15.38
2018-03-03T03:25:13.887Z,15.38
2018-03-03T03:26:13.952Z,15.38
2018-03-03T03:27:13.909Z,15.38
2018-03-03T03:28:13.906Z,15.39
2018-03-03T03:29:13.918Z,15.39
2018-03-03T03:30:13.904Z,15.36
2018-03-03T03:31:13.994Z,15.39
2018-03-03T03:32:13.902Z,15.36
2018-03-03T03:33:13.878Z,15.35
2018-03-03T03:34:13.927Z,15.36
2018-03-03T03:35:14.022Z,15.36
2018-03-03T03:36:13.978Z,15.36
2018-03-03T03:37:13.912Z,15.38
2018-03-03T03:38:13.907Z,15.35
2018-03-03T03:39:13.960Z,15.36
2018-03-03T03:40:13.910Z,15.34
2018-03-03T03:41:13.925Z,15.34
2018-03-03T03:42:14.191Z,15.35
2018-03-03T03:43:13.887Z,15.32
2018-03-03T03:44:13.902Z,15.31
2018-03-03T03:45:13.898Z,15.34
2018-03-03T03:46:13.909Z,15.31
2018-03-03T03:47:13.925Z,15.29
2018-03-03T03:48:13.926Z,15.34
2018-03-03T03:49:13.880Z,15.32
2018-03-03T03:50:13.891Z,15.31
2018-03-03T03:51:13.884Z,15.31
2018-03-03T03:52:13.904Z,15.31
2018-03-03T03:53:13.914Z,15.31
2018-03-03T03:54:13.898Z,15.29
2018-03-03T03:55:13.901Z,15.28
2018-03-03T03:56:13.900Z,15.29
2018-03-03T03:57:13.896Z,15.29
2018-03-03T03:58:13.975Z,15.28
2018-03-03T03:59:13.920Z,15.31
2018-03-03T04:00:13.896Z,15.29
2018-03-03T04:01:13.864Z,15.32
2018-03-03T04:02:13.907Z,15.29
2018-03-03T04:03:13.867Z,15.28
2018-03-03T04:04:14.265Z,15.29
2018-03-03T04:05:13.877Z,15.28
2018-03-03T04:06:13.880Z,15.28
2018-03-03T04:07:13.907Z,15.28
2018-03-03T04:08:13.858Z,15.29
2018-03-03T04:09:13.889Z,15.28
2018-03-03T04:10:13.887Z,15.25
2018-03-03T04:11:13.896Z,15.28
2018-03-03T04:12:13.771Z,15.26
2018-03-03T04:13:13.885Z,15.26
2018-03-03T04:14:13.887Z,15.24
2018-03-03T04:15:13.895Z,15.25
2018-03-03T04:16:13.932Z,15.25
2018-03-03T04:17:13.917Z,15.24
2018-03-03T04:18:13.903Z,15.25
2018-03-03T04:19:13.895Z,15.26
2018-03-03T04:20:13.860Z,15.24
2018-03-03T04:21:13.903Z,15.22
2018-03-03T04:22:13.904Z,15.24
2018-03-03T04:23:13.906Z,15.24
2018-03-03T04:24:13.881Z,15.25
2018-03-03T04:25:13.876Z,15.22
2018-03-03T04:26:13.879Z,15.21
2018-03-03T04:27:13.917Z,15.24
2018-03-03T04:28:13.893Z,15.22
2018-03-03T04:29:13.922Z,15.21
2018-03-03T04:30:13.886Z,15.24
2018-03-03T04:31:13.875Z,15.22
2018-03-03T04:32:13.868Z,15.22
2018-03-03T04:33:13.849Z,15.21
2018-03-03T04:34:13.891Z,15.24
2018-03-03T04:35:13.879Z,15.19
2018-03-03T04:36:13.875Z,15.21
2018-03-03T04:37:13.859Z,15.24
2018-03-03T04:38:13.881Z,15.19
2018-03-03T04:39:13.918Z,15.21
2018-03-03T04:40:13.868Z,15.21
2018-03-03T04:41:13.884Z,15.21
2018-03-03T04:42:13.896Z,15.22
2018-03-03T04:43:13.878Z,15.21
2018-03-03T04:44:13.900Z,15.19
2018-03-03T04:45:13.889Z,15.18
2018-03-03T04:46:13.904Z,15.19
2018-03-03T04:47:13.975Z,15.18
2018-03-03T04:48:14.000Z,15.21
2018-03-03T04:49:14.925Z,15.21
2018-03-03T04:50:13.858Z,15.19
2018-03-03T04:51:13.839Z,15.17
2018-03-03T04:52:13.850Z,15.17
2018-03-03T04:53:13.850Z,15.17
2018-03-03T04:54:13.888Z,15.19
2018-03-03T04:55:13.837Z,15.19
2018-03-03T04:56:14.303Z,15.22
2018-03-03T04:57:13.842Z,15.22
2018-03-03T04:58:13.876Z,15.21
2018-03-03T04:59:13.880Z,15.21
2018-03-03T05:00:13.858Z,15.22
2018-03-03T05:01:13.921Z,15.21
2018-03-03T05:02:13.884Z,15.21
2018-03-03T05:03:13.862Z,15.22
2018-03-03T05:04:13.879Z,15.21
2018-03-03T05:05:13.889Z,15.21
2018-03-03T05:06:13.905Z,15.18
2018-03-03T05:07:13.881Z,15.19
2018-03-03T05:08:13.863Z,15.18
2018-03-03T05:09:13.858Z,15.19
2018-03-03T05:10:13.862Z,15.18
2018-03-03T05:11:13.847Z,15.21
2018-03-03T05:12:14.144Z,15.18
2018-03-03T05:13:13.887Z,15.22
2018-03-03T05:14:14.700Z,15.21
2018-03-03T05:15:13.855Z,15.19
2018-03-03T05:16:13.866Z,15.21
2018-03-03T05:17:13.885Z,15.21
2018-03-03T05:18:13.858Z,15.22
2018-03-03T05:19:13.864Z,15.22
2018-03-03T05:20:13.873Z,15.24
2018-03-03T05:21:13.864Z,15.25
2018-03-03T05:22:14.118Z,15.25
2018-03-03T05:23:13.878Z,15.26
2018-03-03T05:24:13.933Z,15.26
2018-03-03T05:25:13.892Z,15.26
2018-03-03T05:26:13.868Z,15.28
2018-03-03T05:27:13.900Z,15.34
2018-03-03T05:28:13.872Z,15.34
2018-03-03T05:29:13.854Z,15.31
2018-03-03T05:30:13.872Z,15.34
2018-03-03T05:31:13.858Z,15.34
2018-03-03T05:32:13.962Z,15.36
2018-03-03T05:33:13.865Z,15.35
2018-03-03T05:34:13.881Z,15.39
2018-03-03T05:35:13.868Z,15.41
2018-03-03T05:36:13.880Z,15.42
2018-03-03T05:37:13.892Z,15.43
2018-03-03T05:38:13.850Z,15.45
2018-03-03T05:39:13.852Z,15.49
2018-03-03T05:40:13.874Z,15.47
2018-03-03T05:41:13.852Z,15.52
2018-03-03T05:42:13.856Z,15.53
2018-03-03T05:43:13.863Z,15.53
2018-03-03T05:44:13.868Z,15.62
2018-03-03T05:45:13.879Z,15.63
2018-03-03T05:46:13.860Z,15.6
2018-03-03T05:47:13.887Z,15.62
2018-03-03T05:48:13.901Z,15.64
2018-03-03T05:49:13.856Z,15.67
2018-03-03T05:50:13.836Z,15.69
2018-03-03T05:51:13.892Z,15.69
2018-03-03T05:52:13.863Z,15.7
2018-03-03T05:53:13.894Z,15.71
2018-03-03T05:54:13.875Z,15.74
2018-03-03T05:55:13.860Z,15.74
2018-03-03T05:56:13.871Z,15.77
2018-03-03T05:57:13.850Z,15.77
2018-03-03T05:58:13.866Z,15.8
2018-03-03T05:59:14.233Z,15.8
2018-03-03T06:00:13.866Z,15.82
2018-03-03T06:01:13.874Z,15.82
2018-03-03T06:02:13.871Z,15.86
2018-03-03T06:03:13.862Z,15.87
2018-03-03T06:04:13.845Z,15.88
2018-03-03T06:05:13.840Z,15.88
2018-03-03T06:06:13.851Z,15.9
2018-03-03T06:07:13.873Z,15.94
2018-03-03T06:08:13.858Z,15.93
2018-03-03T06:09:13.848Z,15.94
2018-03-03T06:10:13.842Z,15.96
2018-03-03T06:11:13.841Z,15.97
2018-03-03T06:12:13.895Z,15.98
2018-03-03T06:13:13.870Z,16
2018-03-03T06:14:14.002Z,16
2018-03-03T06:15:13.838Z,16.03
2018-03-03T06:16:13.823Z,16.04
2018-03-03T06:17:13.859Z,16.07
2018-03-03T06:18:13.881Z,16.04
2018-03-03T06:19:13.867Z,16.09
2018-03-03T06:20:13.830Z,16.08
2018-03-03T06:21:13.871Z,16.09
2018-03-03T06:22:13.858Z,16.11
2018-03-03T06:23:13.874Z,16.12
2018-03-03T06:24:13.862Z,16.12
2018-03-03T06:25:13.870Z,16.11
2018-03-03T06:26:13.860Z,16.14
2018-03-03T06:27:13.833Z,16.15
2018-03-03T06:28:13.899Z,16.18
2018-03-03T06:29:13.892Z,16.18
2018-03-03T06:30:13.894Z,16.16
2018-03-03T06:31:13.839Z,16.19
2018-03-03T06:32:13.850Z,16.24
2018-03-03T06:33:13.861Z,16.24
2018-03-03T06:34:13.859Z,16.21
2018-03-03T06:35:14.106Z,16.24
2018-03-03T06:36:13.795Z,16.24
2018-03-03T06:37:13.880Z,16.25
2018-03-03T06:38:13.834Z,16.25
2018-03-03T06:39:13.847Z,16.24
2018-03-03T06:40:13.867Z,16.28
2018-03-03T06:41:13.854Z,16.31
2018-03-03T06:42:13.862Z,16.31
2018-03-03T06:43:13.822Z,16.31
2018-03-03T06:44:13.829Z,16.32
2018-03-03T06:45:13.854Z,16.32
2018-03-03T06:46:14.229Z,16.32
2018-03-03T06:47:13.834Z,16.32
2018-03-03T06:48:13.947Z,16.33
2018-03-03T06:49:13.928Z,16.35
2018-03-03T06:50:13.852Z,16.37
2018-03-03T06:51:13.831Z,16.37
2018-03-03T06:52:14.116Z,16.37
2018-03-03T06:53:13.801Z,16.39
2018-03-03T06:54:13.822Z,16.39
2018-03-03T06:55:13.827Z,16.4
2018-03-03T06:56:13.844Z,16.42
2018-03-03T06:57:13.864Z,16.42
2018-03-03T06:58:13.840Z,16.42
2018-03-03T06:59:13.848Z,16.43
2018-03-03T07:00:13.825Z,16.44
2018-03-03T07:01:13.854Z,16.44
2018-03-03T07:02:13.842Z,16.46
2018-03-03T07:03:13.809Z,16.44
2018-03-03T07:04:13.804Z,16.46
2018-03-03T07:05:13.865Z,16.49
2018-03-03T07:06:13.813Z,16.49
2018-03-03T07:07:13.824Z,16.47
2018-03-03T07:08:13.827Z,16.5
2018-03-03T07:09:13.807Z,16.52
2018-03-03T07:10:13.861Z,16.5
2018-03-03T07:11:13.825Z,16.52
2018-03-03T07:12:13.837Z,16.53
2018-03-03T07:13:13.838Z,16.53
2018-03-03T07:14:13.831Z,16.56
2018-03-03T07:15:13.839Z,16.56
2018-03-03T07:16:13.832Z,16.58
2018-03-03T07:17:13.839Z,16.58
2018-03-03T07:18:13.868Z,16.56
2018-03-03T07:19:13.834Z,16.58
2018-03-03T07:20:13.855Z,16.56
2018-03-03T07:21:13.829Z,16.59
2018-03-03T07:22:13.815Z,16.62
2018-03-03T07:23:13.843Z,16.6
2018-03-03T07:24:13.834Z,16.6
2018-03-03T07:25:13.823Z,16.63
2018-03-03T07:26:13.849Z,16.62
2018-03-03T07:27:13.830Z,16.64
2018-03-03T07:28:13.816Z,16.64
2018-03-03T07:29:13.820Z,16.64
2018-03-03T07:30:14.180Z,16.64
2018-03-03T07:31:13.839Z,16.67
2018-03-03T07:32:13.870Z,16.66
2018-03-03T07:33:13.821Z,16.66
2018-03-03T07:34:13.893Z,16.7
2018-03-03T07:35:13.850Z,16.66
2018-03-03T07:36:13.832Z,16.69
2018-03-03T07:37:13.804Z,16.69
2018-03-03T07:38:13.819Z,16.71
2018-03-03T07:39:13.859Z,16.7
2018-03-03T07:40:14.084Z,16.71
2018-03-03T07:41:13.821Z,16.73
2018-03-03T07:42:13.800Z,16.73
2018-03-03T07:43:13.815Z,16.71
2018-03-03T07:44:13.826Z,16.71
2018-03-03T07:45:13.855Z,16.71
2018-03-03T07:46:13.829Z,16.71
2018-03-03T07:47:13.802Z,16.71
2018-03-03T07:48:13.817Z,16.74
2018-03-03T07:49:13.819Z,16.73
2018-03-03T07:50:13.861Z,16.73
2018-03-03T07:51:13.807Z,16.74
2018-03-03T07:52:13.802Z,16.71
2018-03-03T07:53:13.848Z,16.73
2018-03-03T07:54:13.790Z,16.71
2018-03-03T07:55:13.849Z,16.74
2018-03-03T07:56:13.798Z,16.71
2018-03-03T07:57:13.811Z,16.74
2018-03-03T07:58:13.838Z,16.73
2018-03-03T07:59:13.816Z,16.71
2018-03-03T08:00:13.824Z,16.71
2018-03-03T08:01:13.826Z,16.73
2018-03-03T08:02:13.822Z,16.71
2018-03-03T08:03:13.815Z,16.73
2018-03-03T08:04:13.814Z,16.73
2018-03-03T08:05:13.765Z,16.71
2018-03-03T08:06:14.048Z,16.73
2018-03-03T08:07:13.768Z,16.71
2018-03-03T08:08:13.778Z,16.73
2018-03-03T08:09:13.807Z,16.71
2018-03-03T08:10:13.835Z,16.73
2018-03-03T08:11:13.848Z,16.73
2018-03-03T08:12:13.784Z,16.74
2018-03-03T08:13:13.800Z,16.74
2018-03-03T08:14:13.776Z,16.74
2018-03-03T08:15:13.813Z,16.74
2018-03-03T08:16:13.793Z,16.74
2018-03-03T08:17:13.833Z,16.74
2018-03-03T08:18:13.809Z,16.73
2018-03-03T08:19:13.830Z,16.74
2018-03-03T08:20:13.796Z,16.77
2018-03-03T08:21:14.084Z,16.76
2018-03-03T08:22:13.801Z,16.77
2018-03-03T08:23:13.769Z,16.78
2018-03-03T08:24:13.772Z,16.78
2018-03-03T08:25:13.827Z,16.78
2018-03-03T08:26:13.807Z,16.78
2018-03-03T08:27:13.812Z,16.8
2018-03-03T08:28:13.779Z,16.8
2018-03-03T08:29:13.824Z,16.81
2018-03-03T08:30:13.798Z,16.81
2018-03-03T08:31:13.777Z,16.81
2018-03-03T08:32:13.820Z,16.83
2018-03-03T08:33:13.813Z,16.81
2018-03-03T08:34:13.783Z,16.83
2018-03-03T08:35:13.770Z,16.83
2018-03-03T08:36:13.802Z,16.86
2018-03-03T08:37:13.795Z,16.84
2018-03-03T08:38:13.866Z,16.86
2018-03-03T08:39:13.794Z,16.84
2018-03-03T08:40:13.788Z,16.88
2018-03-03T08:41:13.754Z,16.88
2018-03-03T08:42:13.816Z,16.88
2018-03-03T08:43:13.808Z,16.9
2018-03-03T08:44:14.062Z,16.9
2018-03-03T08:45:13.811Z,16.87
2018-03-03T08:46:13.795Z,16.91
2018-03-03T08:47:13.816Z,16.92
2018-03-03T08:48:13.776Z,16.9
2018-03-03T08:49:13.922Z,16.98
2018-03-03T08:50:13.910Z,16.97
2018-03-03T08:51:13.816Z,16.94
2018-03-03T08:52:13.753Z,16.99
2018-03-03T08:53:13.779Z,17.05
2018-03-03T08:54:13.804Z,17.02
2018-03-03T08:55:13.804Z,17.05
2018-03-03T08:56:13.789Z,17.04
2018-03-03T08:57:14.140Z,17.06
2018-03-03T08:58:13.788Z,17.09
2018-03-03T08:59:13.803Z,17.09
2018-03-03T09:00:14.027Z,17.11
2018-03-03T09:01:13.799Z,17.12
2018-03-03T09:02:13.775Z,17.11
2018-03-03T09:03:13.785Z,17.11
2018-03-03T09:04:13.797Z,17.12
2018-03-03T09:05:13.817Z,17.14
2018-03-03T09:06:13.751Z,17.16
2018-03-03T09:07:13.789Z,17.15
2018-03-03T09:08:13.805Z,17.16
2018-03-03T09:09:13.824Z,17.18
2018-03-03T09:10:13.786Z,17.18
2018-03-03T09:11:13.787Z,17.21
2018-03-03T09:12:13.775Z,17.22
2018-03-03T09:13:13.774Z,17.23
2018-03-03T09:14:13.921Z,17.23
2018-03-03T09:15:13.790Z,17.23
2018-03-03T09:16:13.828Z,17.26
2018-03-03T09:17:13.789Z,17.26
2018-03-03T09:18:13.783Z,17.29
2018-03-03T09:19:13.752Z,17.25
2018-03-03T09:20:13.764Z,17.31
2018-03-03T09:21:13.821Z,17.29
2018-03-03T09:22:13.750Z,17.32
2018-03-03T09:23:13.731Z,17.32
2018-03-03T09:24:13.763Z,17.33
2018-03-03T09:25:13.798Z,17.35
2018-03-03T09:26:13.746Z,17.33
2018-03-03T09:27:13.749Z,17.36
2018-03-03T09:28:13.754Z,17.36
2018-03-03T09:29:13.787Z,17.35
2018-03-03T09:30:13.771Z,17.35
2018-03-03T09:31:13.747Z,17.36
2018-03-03T09:32:13.778Z,17.33
2018-03-03T09:33:13.772Z,17.32
2018-03-03T09:34:13.737Z,17.32
2018-03-03T09:35:13.744Z,17.32
2018-03-03T09:36:13.791Z,17.33
2018-03-03T09:37:13.760Z,17.32
2018-03-03T09:38:13.789Z,17.32
2018-03-03T09:39:13.736Z,17.33
2018-03-03T09:40:13.781Z,17.35
2018-03-03T09:41:13.762Z,17.33
2018-03-03T09:42:13.822Z,17.36
2018-03-03T09:43:13.777Z,17.33
2018-03-03T09:44:13.767Z,17.33
2018-03-03T09:45:13.741Z,17.33
2018-03-03T09:46:13.774Z,17.33
2018-03-03T09:47:13.794Z,17.33
2018-03-03T09:48:13.735Z,17.33
2018-03-03T09:49:13.720Z,17.33
2018-03-03T09:50:13.757Z,17.35
2018-03-03T09:51:13.742Z,17.35
2018-03-03T09:52:13.778Z,17.36
2018-03-03T09:53:13.774Z,17.33
2018-03-03T09:54:13.765Z,17.36
2018-03-03T09:55:13.776Z,17.35
2018-03-03T09:56:13.745Z,17.38
2018-03-03T09:57:14.041Z,17.39
2018-03-03T09:58:13.735Z,17.33
2018-03-03T09:59:13.757Z,17.35
2018-03-03T10:00:13.747Z,17.36
2018-03-03T10:01:13.759Z,17.38
2018-03-03T10:02:13.770Z,17.36
2018-03-03T10:03:13.744Z,17.36
2018-03-03T10:04:13.750Z,17.38
2018-03-03T10:05:13.813Z,17.36
2018-03-03T10:06:13.767Z,17.38
2018-03-03T10:07:13.762Z,17.38
2018-03-03T10:08:13.726Z,17.39
2018-03-03T10:09:13.745Z,17.36
2018-03-03T10:10:13.739Z,17.38
2018-03-03T10:11:13.764Z,17.38
2018-03-03T10:12:13.738Z,17.36
2018-03-03T10:13:13.732Z,17.38
2018-03-03T10:14:13.727Z,17.36
2018-03-03T10:15:13.725Z,17.36
2018-03-03T10:16:13.989Z,17.4
2018-03-03T10:17:13.744Z,17.38
2018-03-03T10:18:13.741Z,17.38
2018-03-03T10:19:13.725Z,17.39
2018-03-03T10:20:13.739Z,17.38
2018-03-03T10:21:14.006Z,17.39
2018-03-03T10:22:13.724Z,17.39
2018-03-03T10:23:13.775Z,17.38
2018-03-03T10:24:13.724Z,17.39
2018-03-03T10:25:13.770Z,17.38
2018-03-03T10:26:13.769Z,17.4
2018-03-03T10:27:13.850Z,17.39
2018-03-03T10:28:13.736Z,17.38
2018-03-03T10:29:13.729Z,17.39
2018-03-03T10:30:13.733Z,17.39
2018-03-03T10:31:13.740Z,17.39
2018-03-03T10:32:14.002Z,17.39
2018-03-03T10:33:13.717Z,17.42
2018-03-03T10:34:13.752Z,17.4
2018-03-03T10:35:13.720Z,17.43
2018-03-03T10:36:13.726Z,17.42
2018-03-03T10:37:13.753Z,17.42
2018-03-03T10:38:13.987Z,17.45
2018-03-03T10:39:13.725Z,17.43
2018-03-03T10:40:13.746Z,17.43
2018-03-03T10:41:13.768Z,17.42
2018-03-03T10:42:13.710Z,17.45
2018-03-03T10:43:13.769Z,17.43
2018-03-03T10:44:13.736Z,17.43
2018-03-03T10:45:13.715Z,17.45
2018-03-03T10:46:13.722Z,17.43
2018-03-03T10:47:13.713Z,17.43
2018-03-03T10:48:13.720Z,17.43
2018-03-03T10:49:13.734Z,17.46
2018-03-03T10:50:13.815Z,17.45
2018-03-03T10:51:13.807Z,17.46
2018-03-03T10:52:13.763Z,17.46
2018-03-03T10:53:13.716Z,17.46
2018-03-03T10:54:13.722Z,17.48
2018-03-03T10:55:13.761Z,17.48
2018-03-03T10:56:13.718Z,17.48
2018-03-03T10:57:13.735Z,17.48
2018-03-03T10:58:13.741Z,17.48
2018-03-03T10:59:13.718Z,17.48
2018-03-03T11:00:13.731Z,17.48
2018-03-03T11:01:14.100Z,17.48
2018-03-03T11:02:13.761Z,17.49
2018-03-03T11:03:13.722Z,17.48
2018-03-03T11:04:13.727Z,17.5
2018-03-03T11:05:13.732Z,17.52
2018-03-03T11:06:13.736Z,17.5
2018-03-03T11:07:13.760Z,17.52
2018-03-03T11:08:13.710Z,17.5
2018-03-03T11:09:13.724Z,17.52
2018-03-03T11:10:13.743Z,17.5
2018-03-03T11:11:13.716Z,17.53
2018-03-03T11:12:13.732Z,17.53
2018-03-03T11:13:14.030Z,17.52
2018-03-03T11:14:13.716Z,17.53
2018-03-03T11:15:13.779Z,17.52
2018-03-03T11:16:13.750Z,17.53
2018-03-03T11:17:13.707Z,17.54
2018-03-03T11:18:13.773Z,17.53
2018-03-03T11:19:13.737Z,17.53
2018-03-03T11:20:13.721Z,17.54
2018-03-03T11:21:13.734Z,17.54
2018-03-03T11:22:13.726Z,17.53
2018-03-03T11:23:13.767Z,17.54
2018-03-03T11:24:13.740Z,17.52
2018-03-03T11:25:13.706Z,17.53
2018-03-03T11:26:13.774Z,17.54
2018-03-03T11:27:13.721Z,17.56
2018-03-03T11:28:13.762Z,17.57
2018-03-03T11:29:13.726Z,17.57
2018-03-03T11:30:13.733Z,17.57
2018-03-03T11:31:13.756Z,17.61
2018-03-03T11:32:13.721Z,17.6
2018-03-03T11:33:13.775Z,17.6
2018-03-03T11:34:13.703Z,17.6
2018-03-03T11:35:13.747Z,17.61
2018-03-03T11:36:13.725Z,17.63
2018-03-03T11:37:13.748Z,17.6
2018-03-03T11:38:13.730Z,17.61
2018-03-03T11:39:13.715Z,17.6
2018-03-03T11:40:13.711Z,17.61
2018-03-03T11:41:13.741Z,17.63
2018-03-03T11:42:13.771Z,17.61
2018-03-03T11:43:13.742Z,17.61
2018-03-03T11:44:13.699Z,17.66
2018-03-03T11:45:13.710Z,17.66
2018-03-03T11:46:14.032Z,17.68
2018-03-03T11:47:13.694Z,17.67
2018-03-03T11:48:13.711Z,17.67
2018-03-03T11:49:13.702Z,17.68
2018-03-03T11:50:13.700Z,17.7
2018-03-03T11:51:13.705Z,17.68
2018-03-03T11:52:13.694Z,17.67
2018-03-03T11:53:13.755Z,17.68
2018-03-03T11:54:13.754Z,17.7
2018-03-03T11:55:13.776Z,17.71
2018-03-03T11:56:13.707Z,17.7
2018-03-03T11:57:13.700Z,17.71
2018-03-03T11:58:14.051Z,17.7
2018-03-03T11:59:13.988Z,17.71
2018-03-03T12:00:13.715Z,17.68
2018-03-03T12:01:13.716Z,17.71
2018-03-03T12:02:13.692Z,17.71
2018-03-03T12:03:13.724Z,17.74
2018-03-03T12:04:13.736Z,17.74
2018-03-03T12:05:13.693Z,17.74
2018-03-03T12:06:13.751Z,17.73
2018-03-03T12:07:13.715Z,17.73
2018-03-03T12:08:13.689Z,17.74
2018-03-03T12:09:13.720Z,17.73
2018-03-03T12:10:13.702Z,17.68
2018-03-03T12:11:13.750Z,17.73
2018-03-03T12:12:13.705Z,17.71
2018-03-03T12:13:13.699Z,17.71
2018-03-03T12:14:13.715Z,17.71
2018-03-03T12:15:13.679Z,17.68
2018-03-03T12:16:13.679Z,17.71
2018-03-03T12:17:13.712Z,17.73
2018-03-03T12:18:13.694Z,17.71
2018-03-03T12:19:13.744Z,17.7
2018-03-03T12:20:13.687Z,17.73
2018-03-03T12:21:13.681Z,17.7
2018-03-03T12:22:13.897Z,17.73
2018-03-03T12:23:13.711Z,17.71
2018-03-03T12:24:13.712Z,17.7
2018-03-03T12:25:13.954Z,17.71
2018-03-03T12:26:13.702Z,17.7
2018-03-03T12:27:13.694Z,17.7
2018-03-03T12:28:13.703Z,17.71
2018-03-03T12:29:13.704Z,17.71
2018-03-03T12:30:13.730Z,17.7
2018-03-03T12:31:13.695Z,17.71
2018-03-03T12:32:13.673Z,17.7
2018-03-03T12:33:13.688Z,17.71
2018-03-03T12:34:13.684Z,17.71
2018-03-03T12:35:13.706Z,17.73
2018-03-03T12:36:13.682Z,17.7
2018-03-03T12:37:13.699Z,17.67
2018-03-03T12:38:13.691Z,17.68
2018-03-03T12:39:13.692Z,17.67
2018-03-03T12:40:13.708Z,17.66
2018-03-03T12:41:13.680Z,17.68
2018-03-03T12:42:13.751Z,17.68
2018-03-03T12:43:13.693Z,17.68
2018-03-03T12:44:13.693Z,17.66
2018-03-03T12:45:13.669Z,17.68
2018-03-03T12:46:13.699Z,17.68
2018-03-03T12:47:17.121Z,17.68
2018-03-03T12:48:13.654Z,17.7
2018-03-03T12:49:13.671Z,17.68
2018-03-03T12:50:13.656Z,17.64
2018-03-03T12:51:13.755Z,17.68
2018-03-03T12:52:13.810Z,17.68
2018-03-03T12:53:13.676Z,17.68
2018-03-03T12:54:13.671Z,17.67
2018-03-03T12:55:13.693Z,17.67